NJE834V EDDF-EDDS
Flight info
| Callsign | NJE834V |
|---|---|
| Flight time | 0h 20m |
| Altitude | 22000 |
| Route | ANEKI2L/18 ANEKI Y163 NEKLO Y171 INKAM N850 KRH T128 BADSO BADSO2A |
| Aircraft | C700/M-SBDGHM1RWXY/LB2 |
Departure
| Time | 2026-04-15 09:46 |
|---|---|
| Airport | Frankfurt Main Airport (EDDF) |
Arrival
| Time | 2026-04-15 10:07 |
|---|---|
| Airport | Stuttgart Airport (EDDS) |
| Time | Latitude | Longitude | Altitude | Speed | Heading |
|---|---|---|---|---|---|
| 2026-04-15 09:27 | 50.02305 | 8.53322 | 325 ft | 0 kts | 339° |
| 2026-04-15 09:38 | 50.02291 | 8.53330 | 327 ft | 4 kts | 339° |
| 2026-04-15 09:38 | 50.02268 | 8.53343 | 328 ft | 4 kts | 308° |
| 2026-04-15 09:39 | 50.02267 | 8.53372 | 328 ft | 3 kts | 250° |
| 2026-04-15 09:39 | 50.02264 | 8.53358 | 328 ft | 4 kts | 250° |
| 2026-04-15 09:39 | 50.02254 | 8.53319 | 329 ft | 4 kts | 250° |
| 2026-04-15 09:39 | 50.02244 | 8.53280 | 329 ft | 4 kts | 249° |
| 2026-04-15 09:40 | 50.02235 | 8.53240 | 326 ft | 4 kts | 249° |
| 2026-04-15 09:40 | 50.02225 | 8.53201 | 329 ft | 4 kts | 249° |
| 2026-04-15 09:40 | 50.02216 | 8.53165 | 329 ft | 2 kts | 249° |
| 2026-04-15 09:40 | 50.02216 | 8.53163 | 329 ft | 0 kts | 249° |
| 2026-04-15 09:43 | 50.02214 | 8.53154 | 329 ft | 5 kts | 249° |
| 2026-04-15 09:44 | 50.02186 | 8.53092 | 329 ft | 8 kts | 217° |
| 2026-04-15 09:44 | 50.02152 | 8.53020 | 327 ft | 9 kts | 263° |
| 2026-04-15 09:44 | 50.02146 | 8.52879 | 330 ft | 15 kts | 270° |
| 2026-04-15 09:44 | 50.02230 | 8.52829 | 330 ft | 15 kts | 1° |
| 2026-04-15 09:45 | 50.02321 | 8.52788 | 330 ft | 0 kts | 282° |
| 2026-04-15 09:45 | 50.02321 | 8.52787 | 330 ft | 2 kts | 279° |
| 2026-04-15 09:45 | 50.02292 | 8.52641 | 327 ft | 26 kts | 240° |
| 2026-04-15 09:45 | 50.02200 | 8.52610 | 328 ft | 33 kts | 179° |
| 2026-04-15 09:46 | 50.01629 | 8.52618 | 327 ft | 129 kts | 180° |
| 2026-04-15 09:46 | 50.00526 | 8.52574 | 873 ft | 171 kts | 179° |
| 2026-04-15 09:46 | 49.99203 | 8.52624 | 1779 ft | 212 kts | 176° |
| 2026-04-15 09:46 | 49.97578 | 8.52756 | 2462 ft | 258 kts | 175° |
| 2026-04-15 09:47 | 49.95766 | 8.52919 | 2532 ft | 259 kts | 175° |
| 2026-04-15 09:47 | 49.93977 | 8.53039 | 2521 ft | 255 kts | 176° |
| 2026-04-15 09:47 | 49.92234 | 8.53150 | 2699 ft | 244 kts | 175° |
| 2026-04-15 09:47 | 49.90628 | 8.53264 | 3149 ft | 223 kts | 175° |
| 2026-04-15 09:48 | 49.89149 | 8.53369 | 3650 ft | 202 kts | 175° |
| 2026-04-15 09:48 | 49.87807 | 8.53464 | 4150 ft | 194 kts | 175° |
| 2026-04-15 09:48 | 49.86370 | 8.53573 | 4712 ft | 215 kts | 175° |
| 2026-04-15 09:48 | 49.84802 | 8.53677 | 5450 ft | 229 kts | 176° |
| 2026-04-15 09:49 | 49.83214 | 8.53781 | 6589 ft | 230 kts | 177° |
| 2026-04-15 09:49 | 49.81595 | 8.53896 | 7549 ft | 236 kts | 177° |
| 2026-04-15 09:49 | 49.79947 | 8.54015 | 8564 ft | 238 kts | 178° |
| 2026-04-15 09:49 | 49.78291 | 8.54137 | 9521 ft | 247 kts | 177° |
| 2026-04-15 09:50 | 49.76491 | 8.54506 | 10017 ft | 275 kts | 171° |
| 2026-04-15 09:50 | 49.74537 | 8.55087 | 10574 ft | 296 kts | 170° |
| 2026-04-15 09:50 | 49.72433 | 8.55610 | 11171 ft | 314 kts | 173° |
| 2026-04-15 09:50 | 49.70290 | 8.56061 | 12230 ft | 316 kts | 173° |
| 2026-04-15 09:51 | 49.68038 | 8.56566 | 13193 ft | 323 kts | 173° |
| 2026-04-15 09:51 | 49.65798 | 8.57102 | 14140 ft | 328 kts | 172° |
| 2026-04-15 09:51 | 49.63548 | 8.57631 | 14916 ft | 334 kts | 172° |
| 2026-04-15 09:51 | 49.61200 | 8.58168 | 15723 ft | 339 kts | 172° |
| 2026-04-15 09:52 | 49.58874 | 8.58701 | 16515 ft | 345 kts | 172° |
| 2026-04-15 09:52 | 49.56486 | 8.59252 | 17228 ft | 353 kts | 172° |
| 2026-04-15 09:52 | 49.53966 | 8.59834 | 17262 ft | 379 kts | 172° |
| 2026-04-15 09:52 | 49.51264 | 8.60456 | 17276 ft | 403 kts | 172° |
| 2026-04-15 09:53 | 49.48412 | 8.61111 | 17278 ft | 424 kts | 172° |
| 2026-04-15 09:53 | 49.45554 | 8.61772 | 17267 ft | 399 kts | 171° |
| 2026-04-15 09:53 | 49.42928 | 8.62382 | 17253 ft | 365 kts | 172° |
| 2026-04-15 09:53 | 49.40512 | 8.62934 | 17249 ft | 344 kts | 172° |
| 2026-04-15 09:54 | 49.38141 | 8.63470 | 17252 ft | 348 kts | 172° |
| 2026-04-15 09:54 | 49.35635 | 8.64042 | 17262 ft | 378 kts | 171° |
| 2026-04-15 09:54 | 49.32920 | 8.64666 | 17266 ft | 407 kts | 171° |
| 2026-04-15 09:54 | 49.30108 | 8.65308 | 17260 ft | 411 kts | 172° |
| 2026-04-15 09:55 | 49.27240 | 8.65960 | 17255 ft | 418 kts | 172° |
| 2026-04-15 09:55 | 49.24406 | 8.66604 | 17249 ft | 415 kts | 172° |
| 2026-04-15 09:55 | 49.21542 | 8.67255 | 17234 ft | 418 kts | 172° |
| 2026-04-15 09:55 | 49.18655 | 8.67911 | 17166 ft | 416 kts | 171° |
| 2026-04-15 09:56 | 49.15847 | 8.68547 | 16669 ft | 400 kts | 171° |
| 2026-04-15 09:56 | 49.13136 | 8.69161 | 16154 ft | 385 kts | 172° |
| 2026-04-15 09:56 | 49.07926 | 8.70339 | 15160 ft | 375 kts | 172° |
| 2026-04-15 09:57 | 49.05369 | 8.70916 | 14672 ft | 377 kts | 172° |
| 2026-04-15 09:57 | 49.02785 | 8.71499 | 14177 ft | 375 kts | 172° |
| 2026-04-15 09:57 | 49.00231 | 8.72075 | 13653 ft | 365 kts | 172° |
| 2026-04-15 09:57 | 48.97779 | 8.72627 | 13174 ft | 346 kts | 172° |
| 2026-04-15 09:58 | 48.95455 | 8.73149 | 12728 ft | 330 kts | 172° |
| 2026-04-15 09:58 | 48.93228 | 8.73649 | 12304 ft | 317 kts | 172° |
| 2026-04-15 09:58 | 48.91083 | 8.74131 | 11888 ft | 305 kts | 172° |
| 2026-04-15 09:58 | 48.89010 | 8.74595 | 11488 ft | 295 kts | 172° |
| 2026-04-15 09:59 | 48.87002 | 8.75045 | 11105 ft | 289 kts | 172° |
| 2026-04-15 09:59 | 48.85022 | 8.75489 | 10727 ft | 288 kts | 172° |
| 2026-04-15 09:59 | 48.83062 | 8.75927 | 10357 ft | 288 kts | 172° |
| 2026-04-15 09:59 | 48.81074 | 8.76371 | 9955 ft | 288 kts | 171° |
| 2026-04-15 10:00 | 48.79091 | 8.76814 | 9567 ft | 287 kts | 171° |
| 2026-04-15 10:00 | 48.77127 | 8.77252 | 9188 ft | 283 kts | 171° |
| 2026-04-15 10:00 | 48.75188 | 8.77684 | 8708 ft | 282 kts | 171° |
| 2026-04-15 10:00 | 48.73251 | 8.78115 | 8226 ft | 280 kts | 170° |
| 2026-04-15 10:01 | 48.71347 | 8.78540 | 7846 ft | 274 kts | 170° |
| 2026-04-15 10:01 | 48.69475 | 8.78955 | 7482 ft | 271 kts | 170° |
| 2026-04-15 10:01 | 48.67607 | 8.79373 | 7124 ft | 271 kts | 169° |
| 2026-04-15 10:01 | 48.65825 | 8.80217 | 6757 ft | 268 kts | 150° |
| 2026-04-15 10:02 | 48.64401 | 8.81979 | 6397 ft | 264 kts | 129° |
| 2026-04-15 10:02 | 48.63532 | 8.84398 | 6038 ft | 262 kts | 107° |
| 2026-04-15 10:02 | 48.63335 | 8.87105 | 5673 ft | 259 kts | 86° |
| 2026-04-15 10:02 | 48.63768 | 8.89716 | 5317 ft | 254 kts | 72° |
| 2026-04-15 10:03 | 48.64219 | 8.92236 | 5243 ft | 250 kts | 79° |
| 2026-04-15 10:03 | 48.64530 | 8.94895 | 4940 ft | 253 kts | 80° |
| 2026-04-15 10:03 | 48.64882 | 8.97520 | 4381 ft | 254 kts | 79° |
| 2026-04-15 10:03 | 48.65237 | 9.00178 | 3699 ft | 261 kts | 80° |
| 2026-04-15 10:04 | 48.65520 | 9.02816 | 3524 ft | 247 kts | 82° |
| 2026-04-15 10:04 | 48.65766 | 9.05315 | 3316 ft | 232 kts | 82° |
| 2026-04-15 10:04 | 48.66134 | 9.07650 | 3052 ft | 225 kts | 72° |
| 2026-04-15 10:04 | 48.66613 | 9.09780 | 2865 ft | 200 kts | 71° |
| 2026-04-15 10:05 | 48.66992 | 9.11652 | 2614 ft | 175 kts | 75° |
| 2026-04-15 10:05 | 48.67265 | 9.13211 | 2439 ft | 137 kts | 75° |
| 2026-04-15 10:05 | 48.67522 | 9.14529 | 2174 ft | 129 kts | 73° |
| 2026-04-15 10:05 | 48.67767 | 9.15828 | 1955 ft | 127 kts | 74° |
| 2026-04-15 10:06 | 48.68019 | 9.17104 | 1757 ft | 125 kts | 75° |
| 2026-04-15 10:06 | 48.68255 | 9.18371 | 1580 ft | 126 kts | 73° |
| 2026-04-15 10:06 | 48.68499 | 9.19640 | 1428 ft | 124 kts | 74° |
| 2026-04-15 10:06 | 48.68739 | 9.20891 | 1282 ft | 121 kts | 74° |
| 2026-04-15 10:07 | 48.68957 | 9.22058 | 1237 ft | 102 kts | 66° |
| 2026-04-15 10:07 | 48.69113 | 9.22801 | 1215 ft | 42 kts | 66° |
| 2026-04-15 10:07 | 48.69277 | 9.23118 | 1211 ft | 33 kts | 44° |
| 2026-04-15 10:07 | 48.69417 | 9.23057 | 1219 ft | 8 kts | 265° |
| 2026-04-15 10:08 | 48.69391 | 9.22939 | 1221 ft | 17 kts | 252° |
| 2026-04-15 10:08 | 48.69347 | 9.22713 | 1226 ft | 27 kts | 254° |
| 2026-04-15 10:08 | 48.69287 | 9.22402 | 1232 ft | 35 kts | 253° |
| 2026-04-15 10:08 | 48.69218 | 9.22041 | 1250 ft | 35 kts | 257° |
| 2026-04-15 10:09 | 48.69155 | 9.21704 | 1249 ft | 32 kts | 254° |
| 2026-04-15 10:09 | 48.69098 | 9.21399 | 1260 ft | 30 kts | 254° |
| 2026-04-15 10:09 | 48.69051 | 9.21148 | 1263 ft | 13 kts | 266° |
| 2026-04-15 10:09 | 48.69105 | 9.21076 | 1266 ft | 11 kts | 344° |
| 2026-04-15 10:10 | 48.69129 | 9.21041 | 1266 ft | 0 kts | 267° |
| 2026-04-15 10:10 | 48.69117 | 9.21020 | 1266 ft | 3 kts | 194° |
| 2026-04-15 10:10 | 48.69101 | 9.21027 | 1266 ft | 0 kts | 161° |
| 2026-04-15 10:10 | 48.69093 | 9.21031 | 1266 ft | 0 kts | 161° |